Time;durP1;ratioP1;P1;durP2;ratioP2;P2;SDS_P1;SDS_P2;PMS_P1;PMS_P2;Temp;Humidity;BMP_temperature;BMP_pressure;BME280_temperature;BME280_humidity;BME280_pressure;Samples;Min_cycle;Max_cycle;Signal;HPM_P1;HPM_P2
2023/05/05 00:00:52;;;;;;;;;;;;;;;19.06;49.32;101299.58;103564;1288;61372;-83
2023/05/05 00:03:21;;;;;;;;;;;;;;;19.06;49.28;101296.20;103584;1288;61365;-83
2023/05/05 00:05:50;;;;;;;;;;;;;;;19.06;49.34;101297.05;103632;1284;61448;-83
2023/05/05 00:08:15;;;;;;;;;;;;;;;19.06;49.27;101296.89;103492;1289;61374;-83
2023/05/05 00:10:46;;;;;;;;;;;;;;;19.06;49.38;101297.80;103465;1288;61915;-83
2023/05/05 00:13:12;;;;;;;;;;;;;;;19.06;49.18;101294.21;103536;1284;74550;-82
2023/05/05 00:15:38;;;;;;;;;;;;;;;19.06;49.19;101293.16;103448;1286;61470;-83
2023/05/05 00:18:05;;;;;;;;;;;;;;;19.06;49.28;101292.97;103592;1283;61256;-83
2023/05/05 00:20:31;;;;;;;;;;;;;;;19.06;49.37;101291.02;103438;1288;61426;-83
2023/05/05 00:22:56;;;;;;;;;;;;;;;19.05;49.20;101290.48;103457;1288;62638;-83
2023/05/05 00:25:22;;;;;;;;;;;;;;;19.06;49.26;101289.59;103430;1288;61403;-82
2023/05/05 00:27:47;;;;;;;;;;;;;;;19.06;49.18;101286.74;103693;1297;62508;-83
2023/05/05 00:30:13;;;;;;;;;;;;;;;19.05;49.25;101283.77;103412;1286;61282;-83
2023/05/05 00:32:38;;;;;;;;;;;;;;;19.05;49.12;101282.30;103694;1288;61337;-83
2023/05/05 00:35:05;;;;;;;;;;;;;;;19.05;49.15;101285.70;103440;1289;61460;-83
2023/05/05 00:37:30;;;;;;;;;;;;;;;19.06;49.18;101283.54;103317;1289;61390;-82
2023/05/05 00:39:57;;;;;;;;;;;;;;;19.05;49.15;101282.48;103425;1289;62080;-82
2023/05/05 00:42:23;;;;;;;;;;;;;;;19.06;49.18;101283.36;103488;1288;61372;-82
2023/05/05 00:44:49;;;;;;;;;;;;;;;19.05;49.23;101290.67;103636;1289;61334;-82
2023/05/05 00:47:15;;;;;;;;;;;;;;;19.05;49.22;101287.66;103439;1298;61400;-82
2023/05/05 00:49:41;;;;;;;;;;;;;;;19.05;49.20;101290.89;103472;1288;61371;-83
2023/05/05 00:52:07;;;;;;;;;;;;;;;19.05;49.25;101289.65;103438;1285;61375;-82
2023/05/05 00:54:33;;;;;;;;;;;;;;;19.05;49.26;101288.04;103443;1288;61294;-82
2023/05/05 00:56:59;;;;;;;;;;;;;;;19.05;49.26;101284.47;103429;1289;62806;-82
2023/05/05 00:59:25;;;;;;;;;;;;;;;19.05;49.24;101284.84;103451;1288;61403;-83
2023/05/05 01:01:50;;;;;;;;;;;;;;;19.05;49.16;101287.70;103507;1298;62310;-83
2023/05/05 01:04:16;;;;;;;;;;;;;;;19.04;49.23;101290.38;103631;1284;61365;-82
2023/05/05 01:07:07;;;;;;;;;;;;;;;19.05;49.24;101291.09;103459;1289;61551;-83
2023/05/05 01:09:33;;;;;;;;;;;;;;;19.04;49.08;101287.53;103292;1288;74450;-83
2023/05/05 01:11:58;;;;;;;;;;;;;;;19.05;49.12;101285.90;103617;1289;62564;-83
2023/05/05 01:14:36;;;;;;;;;;;;;;;19.04;49.22;101284.85;103624;1283;61397;-82
2023/05/05 01:17:03;;;;;;;;;;;;;;;19.05;49.13;101284.85;103641;1288;73594;-83
2023/05/05 01:19:44;;;;;;;;;;;;;;;19.05;49.12;101286.45;103625;1288;74565;-82
2023/05/05 01:22:11;;;;;;;;;;;;;;;19.04;49.18;101283.62;103642;1288;62062;-82
2023/05/05 01:24:55;;;;;;;;;;;;;;;19.04;49.10;101277.71;103438;1289;62057;-83
2023/05/05 01:27:39;;;;;;;;;;;;;;;19.04;49.18;101273.09;103576;1283;72469;-83
2023/05/05 01:30:30;;;;;;;;;;;;;;;19.05;49.15;101273.42;103668;1288;75292;-83
2023/05/05 01:33:00;;;;;;;;;;;;;;;19.04;49.21;101276.84;103590;1288;61235;-83
2023/05/05 01:35:29;;;;;;;;;;;;;;;19.04;49.24;101275.94;103451;1286;61291;-83
2023/05/05 01:38:05;;;;;;;;;;;;;;;19.05;49.10;101276.46;103474;1290;73777;-81
2023/05/05 01:40:32;;;;;;;;;;;;;;;19.04;49.14;101272.92;103600;1288;74525;-84
2023/05/05 01:42:58;;;;;;;;;;;;;;;19.04;49.23;101270.77;103424;1288;61315;-83
2023/05/05 01:45:26;;;;;;;;;;;;;;;19.04;49.12;101271.49;103639;1289;62547;-82
2023/05/05 01:47:51;;;;;;;;;;;;;;;19.04;49.12;101271.16;103412;1286;71597;-83
2023/05/05 01:50:17;;;;;;;;;;;;;;;19.04;49.12;101275.05;103443;1289;61419;-83
2023/05/05 01:52:43;;;;;;;;;;;;;;;19.04;49.09;101279.70;103388;1288;61362;-83
2023/05/05 01:55:08;;;;;;;;;;;;;;;19.04;49.24;101277.55;103479;1286;61374;-83
2023/05/05 01:57:34;;;;;;;;;;;;;;;19.04;49.11;101280.07;103404;1289;62568;-83
2023/05/05 02:00:00;;;;;;;;;;;;;;;19.04;49.06;101279.37;103644;1286;62645;-83
2023/05/05 02:02:26;;;;;;;;;;;;;;;19.04;49.09;101281.50;103424;1286;75479;-83
2023/05/05 02:04:52;;;;;;;;;;;;;;;19.04;49.03;101276.15;103573;1288;62603;-83
2023/05/05 02:07:17;;;;;;;;;;;;;;;19.03;48.99;101278.12;103615;1289;61374;-83
2023/05/05 02:09:43;;;;;;;;;;;;;;;19.04;48.94;101278.30;103548;1289;61406;-83
2023/05/05 02:12:08;;;;;;;;;;;;;;;19.03;49.06;101276.88;103675;1285;62400;-83
2023/05/05 02:14:34;;;;;;;;;;;;;;;19.03;49.06;101271.00;103658;1285;74452;-83
2023/05/05 02:17:00;;;;;;;;;;;;;;;19.03;49.05;101276.88;103443;1284;61330;-83
2023/05/05 02:19:30;;;;;;;;;;;;;;;19.03;49.16;101271.55;103583;1289;61384;-82
2023/05/05 02:21:56;;;;;;;;;;;;;;;19.03;49.11;101274.07;103477;1288;74851;-82
2023/05/05 02:24:21;;;;;;;;;;;;;;;19.03;49.06;101272.45;103442;1286;62539;-82
2023/05/05 02:26:47;;;;;;;;;;;;;;;19.03;49.14;101272.44;103596;1285;61289;-82
2023/05/05 02:29:17;;;;;;;;;;;;;;;19.03;48.93;101271.20;103431;1289;61342;-83
2023/05/05 02:31:44;;;;;;;;;;;;;;;19.03;48.96;101270.33;103570;1288;72776;-82
2023/05/05 02:34:10;;;;;;;;;;;;;;;19.03;48.98;101266.39;103474;1284;74474;-83
2023/05/05 02:36:37;;;;;;;;;;;;;;;19.03;48.92;101266.58;103636;1288;61780;-84
2023/05/05 02:39:03;;;;;;;;;;;;;;;19.03;49.19;101264.26;103419;1285;61304;-82
2023/05/05 02:41:29;;;;;;;;;;;;;;;19.03;48.96;101262.48;103640;1289;62654;-83
2023/05/05 02:43:54;;;;;;;;;;;;;;;19.02;49.06;101264.09;103444;1288;61483;-83
2023/05/05 02:46:20;;;;;;;;;;;;;;;19.02;49.02;101267.30;103455;1288;61844;-83
2023/05/05 02:48:46;;;;;;;;;;;;;;;19.02;49.01;101266.60;103439;1286;61371;-83
2023/05/05 02:51:11;;;;;;;;;;;;;;;19.02;49.10;101268.23;103497;1289;61465;-84
2023/05/05 02:53:38;;;;;;;;;;;;;;;19.02;49.06;101269.46;103580;1287;62415;-83
2023/05/05 02:56:10;;;;;;;;;;;;;;;19.02;49.13;101266.61;103434;1283;74333;-83
2023/05/05 02:58:45;;;;;;;;;;;;;;;19.02;49.04;101265.92;103613;1284;61400;-83
2023/05/05 03:01:14;;;;;;;;;;;;;;;19.02;49.06;101266.98;103666;1288;61263;-83
2023/05/05 03:03:44;;;;;;;;;;;;;;;19.02;49.05;101265.19;103465;1286;72793;-82
2023/05/05 03:06:11;;;;;;;;;;;;;;;19.02;48.95;101267.70;103614;1285;73509;-83
2023/05/05 03:08:49;;;;;;;;;;;;;;;19.02;49.09;101267.50;103596;1288;61300;-83
2023/05/05 03:11:33;;;;;;;;;;;;;;;19.02;49.02;101266.79;103449;1288;61292;-83
2023/05/05 03:14:10;;;;;;;;;;;;;;;19.02;49.08;101272.67;103621;1288;73371;-83
2023/05/05 03:16:36;;;;;;;;;;;;;;;19.02;49.11;101269.48;103435;1285;75230;-83
2023/05/05 03:19:02;;;;;;;;;;;;;;;19.02;49.06;101271.61;103411;1288;61464;-82
2023/05/05 03:21:27;;;;;;;;;;;;;;;19.01;49.01;101274.34;103450;1285;61469;-82
2023/05/05 03:23:53;;;;;;;;;;;;;;;19.02;48.91;101273.20;103649;1289;62528;-83
2023/05/05 03:26:20;;;;;;;;;;;;;;;19.02;49.09;101273.21;103452;1288;61397;-82
2023/05/05 03:28:46;;;;;;;;;;;;;;;19.02;49.02;101277.30;103639;1286;62476;-83
2023/05/05 03:31:11;;;;;;;;;;;;;;;19.02;49.03;101276.77;103598;1288;61371;-82
2023/05/05 03:33:37;;;;;;;;;;;;;;;19.01;49.13;101278.08;103465;1288;62536;-83
2023/05/05 03:36:03;;;;;;;;;;;;;;;19.01;49.03;101278.79;103399;1285;73296;-82
2023/05/05 03:38:28;;;;;;;;;;;;;;;19.02;49.05;101280.20;103632;1288;61386;-82
2023/05/05 03:40:54;;;;;;;;;;;;;;;19.01;49.05;101280.74;103452;1285;61388;-83
2023/05/05 03:43:20;;;;;;;;;;;;;;;19.01;48.94;101282.02;103616;1286;62363;-83
2023/05/05 03:45:45;;;;;;;;;;;;;;;19.01;49.13;101282.55;103641;1288;61406;-83
2023/05/05 03:48:11;;;;;;;;;;;;;;;19.01;48.91;101281.84;103412;1288;73514;-82
2023/05/05 03:50:37;;;;;;;;;;;;;;;19.01;49.01;101283.45;103424;1285;61336;-83
2023/05/05 03:53:03;;;;;;;;;;;;;;;19.01;49.01;101284.71;103454;1288;61377;-83
2023/05/05 03:55:28;;;;;;;;;;;;;;;19.01;48.98;101287.55;103603;1288;61442;-83
2023/05/05 03:57:55;;;;;;;;;;;;;;;19.01;49.00;101292.02;103397;1285;61448;-82
2023/05/05 04:00:21;;;;;;;;;;;;;;;19.01;49.04;101290.91;103413;1286;61397;-82
2023/05/05 04:02:46;;;;;;;;;;;;;;;19.01;49.10;101294.68;103651;1288;62569;-83
2023/05/05 04:05:12;;;;;;;;;;;;;;;19.01;48.96;101297.34;103599;1285;62448;-83
2023/05/05 04:07:37;;;;;;;;;;;;;;;19.01;49.09;101299.52;103460;1286;61330;-82
2023/05/05 04:10:03;;;;;;;;;;;;;;;19.01;49.01;101305.04;103406;1288;61423;-82
2023/05/05 04:12:28;;;;;;;;;;;;;;;19.01;48.90;101305.58;103538;1285;62450;-82
2023/05/05 04:14:54;;;;;;;;;;;;;;;19.01;48.93;101310.19;103659;1288;61368;-82
2023/05/05 04:17:19;;;;;;;;;;;;;;;19.01;49.09;101310.92;103290;1291;61438;-83
2023/05/05 04:19:45;;;;;;;;;;;;;;;19.01;48.99;101310.23;103412;1286;61379;-83
2023/05/05 04:22:10;;;;;;;;;;;;;;;19.00;48.91;101312.73;103579;1286;61381;-83
2023/05/05 04:24:36;;;;;;;;;;;;;;;19.00;49.03;101318.13;103787;1288;61664;-83
2023/05/05 04:27:02;;;;;;;;;;;;;;;18.98;48.85;101321.25;104127;1284;61756;-84
2023/05/05 04:29:27;;;;;;;;;;;;;;;18.94;48.86;101321.27;103554;1285;61320;-83
2023/05/05 04:31:53;;;;;;;;;;;;;;;18.89;48.84;101315.98;103671;1286;61403;-83
2023/05/05 04:34:18;;;;;;;;;;;;;;;18.87;48.75;101318.05;104172;1285;61317;-85
2023/05/05 04:36:44;;;;;;;;;;;;;;;18.84;48.87;101319.61;103681;1292;61372;-83
2023/05/05 04:39:10;;;;;;;;;;;;;;;18.78;48.73;101317.99;103927;1285;72047;-83
2023/05/05 04:41:36;;;;;;;;;;;;;;;18.69;48.72;101318.30;103841;1285;61396;-81
2023/05/05 04:44:02;;;;;;;;;;;;;;;18.62;48.84;101320.61;104296;1285;61329;-81
2023/05/05 04:46:28;;;;;;;;;;;;;;;18.60;48.86;101324.99;104131;1291;61384;-82
2023/05/05 04:48:53;;;;;;;;;;;;;;;18.59;48.91;101323.44;104352;1288;61493;-84
2023/05/05 04:51:19;;;;;;;;;;;;;;;18.57;48.87;101322.46;104547;1286;61334;-84
2023/05/05 04:53:45;;;;;;;;;;;;;;;18.53;48.90;101323.02;104919;1291;59657;-82
2023/05/05 04:56:10;;;;;;;;;;;;;;;18.50;48.86;101323.41;105055;1288;60459;-83
2023/05/05 04:58:36;;;;;;;;;;;;;;;18.43;48.97;101325.50;105149;1284;63320;-84
2023/05/05 05:01:02;;;;;;;;;;;;;;;18.31;48.85;101326.50;105368;1285;60132;-86
2023/05/05 05:03:27;;;;;;;;;;;;;;;18.17;48.97;101328.79;105671;1288;59792;-85
2023/05/05 05:05:56;;;;;;;;;;;;;;;18.15;49.15;101331.76;105226;1288;59803;-86
2023/05/05 05:08:22;;;;;;;;;;;;;;;18.18;49.13;101330.55;105034;1285;61333;-85
2023/05/05 05:10:48;;;;;;;;;;;;;;;18.23;49.18;101336.66;105083;1284;61722;-84
2023/05/05 05:13:13;;;;;;;;;;;;;;;18.29;49.21;101334.23;105256;1286;61294;-85
2023/05/05 05:15:39;;;;;;;;;;;;;;;18.35;49.21;101338.38;105499;1285;59734;-86
2023/05/05 05:18:05;;;;;;;;;;;;;;;18.41;49.20;101340.59;105684;1285;59750;-84
2023/05/05 05:20:30;;;;;;;;;;;;;;;18.44;49.08;101341.15;105631;1287;73799;-84
2023/05/05 05:23:05;;;;;;;;;;;;;;;18.46;49.10;101343.17;105527;1284;61339;-86
2023/05/05 05:25:30;;;;;;;;;;;;;;;18.46;49.17;101346.23;105577;1285;60361;-82
2023/05/05 05:27:56;;;;;;;;;;;;;;;18.48;49.06;101345.21;105358;1284;61375;-84
2023/05/05 05:30:22;;;;;;;;;;;;;;;18.52;49.16;101348.42;105206;1286;61157;-83
2023/05/05 05:32:47;;;;;;;;;;;;;;;18.55;49.10;101346.83;105597;1284;59773;-83
2023/05/05 05:35:12;;;;;;;;;;;;;;;18.60;49.01;101348.20;105353;1288;61136;-83
2023/05/05 05:37:38;;;;;;;;;;;;;;;18.63;49.11;101344.64;105378;1284;61301;-83
2023/05/05 05:40:04;;;;;;;;;;;;;;;18.67;48.96;101346.41;105707;1283;59647;-83
2023/05/05 05:42:30;;;;;;;;;;;;;;;18.69;48.98;101349.64;105796;1286;59553;-83
2023/05/05 05:44:57;;;;;;;;;;;;;;;18.72;49.15;101349.15;105566;1285;59896;-85
2023/05/05 05:47:23;;;;;;;;;;;;;;;18.75;49.07;101347.39;105458;1284;59771;-84
2023/05/05 05:49:48;;;;;;;;;;;;;;;18.77;49.11;101348.91;105267;1283;61458;-87
2023/05/05 05:52:18;;;;;;;;;;;;;;;18.78;49.07;101344.21;105446;1285;61298;-86
2023/05/05 05:54:44;;;;;;;;;;;;;;;18.75;49.09;101348.09;105373;1284;75018;-83
2023/05/05 05:57:27;;;;;;;;;;;;;;;;;;;;;
2023/05/05 05:59:55;;;;;;;;;;;;;;;18.69;49.04;101350.92;105845;1285;60965;-86
2023/05/05 06:02:20;;;;;;;;;;;;;;;18.67;48.94;101351.23;105812;1287;59585;-86
2023/05/05 06:04:46;;;;;;;;;;;;;;;18.60;49.04;101349.23;105448;1284;61469;-85
2023/05/05 06:07:16;;;;;;;;;;;;;;;18.58;49.08;101346.28;106478;1284;60098;-87
2023/05/05 06:09:44;;;;;;;;;;;;;;;18.60;49.10;101343.55;106465;1283;60098;-88
2023/05/05 06:12:10;;;;;;;;;;;;;;;18.63;48.99;101342.88;106584;1285;72541;-85
2023/05/05 06:14:43;;;;;;;;;;;;;;;18.64;49.06;101348.71;106418;1285;59278;-88
2023/05/05 06:17:09;;;;;;;;;;;;;;;18.66;48.95;101348.60;106641;1283;60299;-86
2023/05/05 06:19:38;;;;;;;;;;;;;;;18.68;48.98;101351.89;106045;1288;60710;-87
2023/05/05 06:22:04;;;;;;;;;;;;;;;18.69;49.08;101349.14;105220;1284;73430;-86
2023/05/05 06:24:32;;;;;;;;;;;;;;;18.70;48.97;101350.66;105275;1286;75342;-87
2023/05/05 06:27:18;;;;;;;;;;;;;;;18.72;48.98;101350.06;105314;1284;61115;-85
2023/05/05 06:29:54;;;;;;;;;;;;;;;18.73;48.90;101347.84;105349;1285;61222;-87
2023/05/05 06:32:20;;;;;;;;;;;;;;;18.75;48.84;101348.29;105739;1286;72562;-88
2023/05/05 06:34:48;;;;;;;;;;;;;;;18.75;49.03;101343.63;105359;1285;61395;-86
2023/05/05 06:37:27;;;;;;;;;;;;;;;18.77;48.98;101346.75;105122;1283;60016;-87
2023/05/05 06:39:55;;;;;;;;;;;;;;;18.79;48.95;101351.13;105089;1285;61352;-87
2023/05/05 06:42:21;;;;;;;;;;;;;;;18.80;48.86;101348.91;105082;1286;72722;-86
2023/05/05 06:44:47;;;;;;;;;;;;;;;18.82;48.88;101349.02;105193;1285;61475;-84
2023/05/05 06:47:13;;;;;;;;;;;;;;;18.83;48.89;101346.98;105440;1285;61272;-84
2023/05/05 06:49:43;;;;;;;;;;;;;;;18.85;48.88;101346.31;105256;1285;61376;-88
2023/05/05 06:52:09;;;;;;;;;;;;;;;18.87;48.96;101347.13;105331;1287;72688;-87
2023/05/05 06:54:36;;;;;;;;;;;;;;;18.86;48.83;101346.14;105571;1285;74081;-85
2023/05/05 06:57:02;;;;;;;;;;;;;;;18.77;48.90;101347.45;105883;1285;62473;-83
2023/05/05 06:59:29;;;;;;;;;;;;;;;18.75;48.85;101346.67;105909;1284;59639;-85
2023/05/05 07:01:54;;;;;;;;;;;;;;;18.75;49.22;101347.73;105979;1284;60281;-85
2023/05/05 07:04:20;;;;;;;;;;;;;;;18.78;49.11;101346.36;105692;1285;59655;-85
2023/05/05 07:06:46;;;;;;;;;;;;;;;18.81;49.36;101345.48;104953;1286;1001127;-88
2023/05/05 07:09:12;;;;;;;;;;;;;;;18.83;49.29;101345.20;105554;1284;61064;-86
2023/05/05 07:11:37;;;;;;;;;;;;;;;18.85;49.36;101345.96;105572;1286;61309;-85
2023/05/05 07:14:05;;;;;;;;;;;;;;;18.88;49.46;101345.64;105380;1284;73817;-88
2023/05/05 07:16:33;;;;;;;;;;;;;;;18.89;49.59;101348.83;106312;1285;75568;-85
2023/05/05 07:18:59;;;;;;;;;;;;;;;18.87;49.38;101351.04;106366;1285;60054;-85
2023/05/05 07:21:25;;;;;;;;;;;;;;;18.85;49.43;101350.77;106352;1285;59603;-87
2023/05/05 07:23:53;;;;;;;;;;;;;;;18.83;49.36;101351.42;106568;1285;72376;-84
2023/05/05 07:26:18;;;;;;;;;;;;;;;18.83;49.54;101348.56;106298;1286;59280;-85
2023/05/05 07:28:46;;;;;;;;;;;;;;;18.85;49.39;101350.80;106500;1284;59139;-85
2023/05/05 07:31:11;;;;;;;;;;;;;;;18.86;49.55;101344.11;106707;1285;59449;-86
2023/05/05 07:33:39;;;;;;;;;;;;;;;18.87;49.31;101343.91;106410;1286;72258;-86
2023/05/05 07:36:05;;;;;;;;;;;;;;;18.79;48.93;101341.30;105913;1286;59813;-85
2023/05/05 07:38:30;;;;;;;;;;;;;;;18.73;49.21;101344.64;105540;1284;59297;-84
2023/05/05 07:40:56;;;;;;;;;;;;;;;18.75;49.27;101346.48;105269;1286;61354;-85
2023/05/05 07:43:26;;;;;;;;;;;;;;;18.79;49.29;101347.71;105335;1285;73910;-85
2023/05/05 07:45:52;;;;;;;;;;;;;;;18.79;49.07;101349.52;105518;1288;61349;-85
2023/05/05 07:48:17;;;;;;;;;;;;;;;18.79;49.21;101351.30;105366;1285;61362;-85
2023/05/05 07:50:43;;;;;;;;;;;;;;;18.80;49.10;101350.89;105344;1285;61249;-88
2023/05/05 07:53:09;;;;;;;;;;;;;;;18.80;49.03;101348.95;105118;1286;59494;-86
2023/05/05 07:55:51;;;;;;;;;;;;;;;18.80;49.07;101350.17;105193;1285;60026;-89
2023/05/05 07:58:16;;;;;;;;;;;;;;;18.82;49.07;101349.50;105413;1284;73456;-88
2023/05/05 08:01:05;;;;;;;;;;;;;;;18.83;49.03;101344.80;105600;1285;61374;-87
2023/05/05 08:03:34;;;;;;;;;;;;;;;18.83;48.99;101347.66;105740;1284;61106;-85
2023/05/05 08:06:14;;;;;;;;;;;;;;;18.81;49.04;101351.20;105561;1283;61484;-84
2023/05/05 08:08:41;;;;;;;;;;;;;;;18.72;48.87;101353.10;105725;1285;74301;-86
2023/05/05 08:11:14;;;;;;;;;;;;;;;18.68;48.98;101352.55;105516;1285;61474;-88
2023/05/05 08:13:43;;;;;;;;;;;;;;;18.62;49.10;101352.87;106561;1285;60107;-86
2023/05/05 08:16:08;;;;;;;;;;;;;;;18.57;49.08;101356.38;106608;1286;59222;-86
2023/05/05 08:18:36;;;;;;;;;;;;;;;18.61;49.21;101357.23;106181;1285;59414;-88
2023/05/05 08:21:02;;;;;;;;;;;;;;;18.67;49.45;101351.21;105918;1285;59607;-85
2023/05/05 08:23:29;;;;;;;;;;;;;;;18.71;49.49;101351.13;105347;1285;61596;-86
2023/05/05 08:25:54;;;;;;;;;;;;;;;18.76;49.52;101351.23;105276;1288;61278;-85
2023/05/05 08:28:21;;;;;;;;;;;;;;;18.79;49.44;101357.00;104985;1288;62437;-86
2023/05/05 08:30:48;;;;;;;;;;;;;;;18.78;49.38;101356.16;104891;1286;61378;-84
2023/05/05 08:33:13;;;;;;;;;;;;;;;18.73;49.27;101351.76;105290;1284;61266;-85
2023/05/05 08:35:40;;;;;;;;;;;;;;;18.75;49.26;101350.98;105268;1285;61355;-83
2023/05/05 08:38:05;;;;;;;;;;;;;;;18.75;49.16;101353.29;105210;1288;59790;-85
2023/05/05 08:40:32;;;;;;;;;;;;;;;18.68;48.98;101354.16;105592;1284;61377;-85
2023/05/05 08:42:58;;;;;;;;;;;;;;;18.56;48.99;101355.31;105253;1286;70914;-86
2023/05/05 08:45:24;;;;;;;;;;;;;;;18.49;48.99;101356.08;105290;1288;62564;-87
2023/05/05 08:47:49;;;;;;;;;;;;;;;18.44;48.93;101356.32;105115;1285;61250;-86
2023/05/05 08:50:15;;;;;;;;;;;;;;;18.45;49.02;101357.14;105252;1291;59638;-88
2023/05/05 08:52:42;;;;;;;;;;;;;;;18.50;49.12;101360.62;105237;1285;61425;-86
2023/05/05 08:55:14;;;;;;;;;;;;;;;18.52;48.99;101362.65;105186;1284;61308;-88
2023/05/05 08:57:55;;;;;;;;;;;;;;;18.51;49.01;101365.01;105135;1284;72722;-88
2023/05/05 09:00:21;;;;;;;;;;;;;;;18.48;48.76;101363.42;105313;1284;75480;-85
2023/05/05 09:02:47;;;;;;;;;;;;;;;18.45;48.84;101365.17;105621;1288;61282;-87
2023/05/05 09:05:13;;;;;;;;;;;;;;;18.47;48.89;101366.30;105474;1285;61340;-84
2023/05/05 09:07:47;;;;;;;;;;;;;;;18.51;48.93;101365.36;105516;1283;60121;-85
2023/05/05 09:10:13;;;;;;;;;;;;;;;18.54;48.79;101364.15;105354;1285;75365;-85
2023/05/05 09:12:41;;;;;;;;;;;;;;;18.53;48.65;101368.84;105476;1284;61456;-85
2023/05/05 09:15:11;;;;;;;;;;;;;;;18.54;48.73;101369.33;105501;1285;61263;-85
2023/05/05 09:17:37;;;;;;;;;;;;;;;18.52;48.47;101371.60;105662;1284;73353;-87
2023/05/05 09:20:06;;;;;;;;;;;;;;;18.52;48.53;101363.05;105441;1285;61367;-87
2023/05/05 09:22:41;;;;;;;;;;;;;;;18.59;48.39;101360.72;105551;1285;60438;-87
2023/05/05 09:25:10;;;;;;;;;;;;;;;18.63;48.32;101355.66;105365;1285;61068;-87
2023/05/05 09:27:40;;;;;;;;;;;;;;;18.67;48.24;101349.59;105433;1284;72508;-86
2023/05/05 09:30:10;;;;;;;;;;;;;;;18.65;47.80;101349.19;105413;1286;75485;-88
2023/05/05 09:33:05;;;;;;;;;;;;;;;18.60;47.67;101355.66;105562;1285;61945;-88
2023/05/05 09:36:06;;;;;;;;;;;;;;;18.59;47.66;101358.00;105966;1282;157138;-83
2023/05/05 09:38:33;;;;;;;;;;;;;;;18.67;47.60;101355.51;104649;1291;73567;-82
2023/05/05 09:41:24;;;;;;;;;;;;;;;18.68;47.49;101352.92;104727;1295;62068;-81
2023/05/05 09:43:50;;;;;;;;;;;;;;;18.67;47.13;101348.20;104466;1297;62001;-82
2023/05/05 09:46:16;;;;;;;;;;;;;;;18.68;47.24;101347.06;104412;1298;59027;-81
2023/05/05 09:48:42;;;;;;;;;;;;;;;18.72;47.37;101347.58;104398;1296;59850;-82
2023/05/05 09:51:08;;;;;;;;;;;;;;;18.77;47.26;101346.79;104048;1297;61467;-81
2023/05/05 09:53:40;;;;;;;;;;;;;;;18.80;47.23;101348.93;104167;1297;60795;-82
2023/05/05 09:56:07;;;;;;;;;;;;;;;18.82;47.02;101349.88;103938;1296;61256;-82
2023/05/05 09:58:32;;;;;;;;;;;;;;;18.83;47.02;101352.00;104062;1297;73404;-82
2023/05/05 10:00:57;;;;;;;;;;;;;;;18.82;47.00;101348.48;104200;1296;59523;-83
2023/05/05 10:03:23;;;;;;;;;;;;;;;18.81;46.87;101346.05;104581;1296;61293;-82
2023/05/05 10:05:50;;;;;;;;;;;;;;;18.79;46.86;101344.69;104715;1297;59707;-82
2023/05/05 10:08:16;;;;;;;;;;;;;;;18.76;46.60;101336.98;104922;1297;59922;-82
2023/05/05 10:10:45;;;;;;;;;;;;;;;18.76;46.75;101335.02;104879;1299;62139;-83
2023/05/05 10:13:10;;;;;;;;;;;;;;;18.78;46.62;101336.75;105121;1291;59754;-82
2023/05/05 10:15:36;;;;;;;;;;;;;;;18.75;46.55;101335.41;105462;1291;61164;-82
2023/05/05 10:18:02;;;;;;;;;;;;;;;18.73;46.55;101332.87;105077;1291;59770;-83
2023/05/05 10:20:27;;;;;;;;;;;;;;;18.75;46.75;101336.17;105390;1293;61294;-82
2023/05/05 10:22:53;;;;;;;;;;;;;;;18.76;46.79;101336.64;105736;1285;59649;-82
2023/05/05 10:25:30;;;;;;;;;;;;;;;18.77;46.71;101328.90;105514;1282;61164;-83
2023/05/05 10:28:00;;;;;;;;;;;;;;;18.81;46.71;101328.17;105262;1285;61225;-82
2023/05/05 10:30:30;;;;;;;;;;;;;;;18.84;46.77;101328.02;106562;1285;73415;-82
2023/05/05 10:33:15;;;;;;;;;;;;;;;18.87;46.73;101332.33;105543;1284;76888;-82
2023/05/05 10:35:41;;;;;;;;;;;;;;;18.88;46.68;101326.92;105502;1284;61191;-82
2023/05/05 10:38:07;;;;;;;;;;;;;;;18.90;46.74;101329.67;105266;1285;60315;-82
2023/05/05 10:40:32;;;;;;;;;;;;;;;18.90;46.60;101330.05;105631;1284;59601;-82
2023/05/05 10:42:58;;;;;;;;;;;;;;;18.84;46.55;101327.45;105262;1284;61476;-81
2023/05/05 10:45:23;;;;;;;;;;;;;;;18.82;46.55;101322.79;105206;1284;61400;-82
2023/05/05 10:47:49;;;;;;;;;;;;;;;18.80;46.69;101321.45;105008;1285;61466;-82
2023/05/05 10:50:26;;;;;;;;;;;;;;;18.81;46.64;101317.47;104736;1285;63337;-82
2023/05/05 10:52:52;;;;;;;;;;;;;;;18.84;46.52;101315.00;105006;1284;72345;-82
2023/05/05 10:55:37;;;;;;;;;;;;;;;18.88;46.67;101312.31;105254;1284;61208;-82
2023/05/05 10:58:03;;;;;;;;;;;;;;;18.91;46.62;101311.98;105519;1285;61340;-82
2023/05/05 11:00:37;;;;;;;;;;;;;;;18.93;46.51;101310.23;105594;1285;61305;-83
2023/05/05 11:03:15;;;;;;;;;;;;;;;18.95;46.68;101306.08;105842;1288;72451;-83
2023/05/05 11:05:59;;;;;;;;;;;;;;;18.97;46.65;101304.15;105641;1284;74674;-83
2023/05/05 11:08:25;;;;;;;;;;;;;;;18.98;46.69;101303.77;105568;1284;61327;-83
2023/05/05 11:10:50;;;;;;;;;;;;;;;18.97;46.63;101299.87;105389;1285;61307;-82
2023/05/05 11:13:16;;;;;;;;;;;;;;;18.98;46.51;101298.23;105476;1287;61344;-83
2023/05/05 11:15:41;;;;;;;;;;;;;;;18.99;46.61;101293.92;105224;1286;61969;-83
2023/05/05 11:18:07;;;;;;;;;;;;;;;18.99;46.59;101287.46;105233;1284;61532;-84
2023/05/05 11:20:38;;;;;;;;;;;;;;;19.01;46.57;101292.02;105263;1285;61688;-83
2023/05/05 11:23:04;;;;;;;;;;;;;;;19.02;46.51;101288.36;105204;1285;61263;-83
2023/05/05 11:25:33;;;;;;;;;;;;;;;19.04;46.38;101289.70;105056;1288;61737;-83
2023/05/05 11:28:15;;;;;;;;;;;;;;;19.04;46.56;101291.34;104874;1285;74878;-82
2023/05/05 11:30:55;;;;;;;;;;;;;;;19.05;46.48;101285.39;104954;1284;61174;-83
2023/05/05 11:33:24;;;;;;;;;;;;;;;19.07;46.64;101278.65;105025;1285;61231;-82
2023/05/05 11:35:56;;;;;;;;;;;;;;;19.10;46.62;101275.30;104857;1285;71100;-82
2023/05/05 11:38:37;;;;;;;;;;;;;;;19.12;46.70;101271.61;104924;1284;75614;-81
2023/05/05 11:41:15;;;;;;;;;;;;;;;19.14;46.69;101268.09;105117;1285;61243;-82
2023/05/05 11:43:41;;;;;;;;;;;;;;;19.17;46.88;101269.37;104967;1284;61173;-81
2023/05/05 11:46:10;;;;;;;;;;;;;;;19.19;46.91;101272.48;105160;1284;61486;-81
2023/05/05 11:48:45;;;;;;;;;;;;;;;19.18;46.70;101264.85;105232;1288;74565;-82
2023/05/05 11:51:12;;;;;;;;;;;;;;;19.18;46.76;101263.23;104948;1285;61331;-81
2023/05/05 11:53:42;;;;;;;;;;;;;;;19.19;46.76;101254.95;106594;1284;60169;-82
2023/05/05 11:56:09;;;;;;;;;;;;;;;19.20;46.72;101250.79;106669;1285;59217;-82
2023/05/05 11:58:34;;;;;;;;;;;;;;;19.23;46.93;101250.80;106674;1284;59294;-82
2023/05/05 12:00:59;;;;;;;;;;;;;;;19.26;46.89;101252.41;106482;1285;59362;-82
2023/05/05 12:03:25;;;;;;;;;;;;;;;19.26;46.70;101243.69;106542;1284;59392;-82
2023/05/05 12:05:54;;;;;;;;;;;;;;;19.27;46.85;101240.98;106508;1285;59498;-82
2023/05/05 12:08:19;;;;;;;;;;;;;;;19.28;46.57;101242.90;106469;1285;73379;-82
2023/05/05 12:10:45;;;;;;;;;;;;;;;19.29;46.64;101234.98;105891;1284;61423;-82
2023/05/05 12:13:19;;;;;;;;;;;;;;;19.31;46.78;101235.21;104909;1284;59403;-80
2023/05/05 12:15:45;;;;;;;;;;;;;;;19.34;46.79;101228.23;104937;1285;61438;-81
2023/05/05 12:18:17;;;;;;;;;;;;;;;19.38;47.01;101223.74;104517;1285;61408;-81
2023/05/05 12:20:43;;;;;;;;;;;;;;;19.41;46.97;101221.27;106153;1284;74988;-81
2023/05/05 12:23:11;;;;;;;;;;;;;;;19.43;47.12;101217.01;104441;1285;61302;-81
2023/05/05 12:25:39;;;;;;;;;;;;;;;19.46;47.29;101213.63;104484;1285;61110;-81
2023/05/05 12:28:06;;;;;;;;;;;;;;;19.49;47.11;101207.96;104083;1285;72346;-82
2023/05/05 12:30:31;;;;;;;;;;;;;;;19.51;47.23;101206.23;104594;1286;74229;-81
2023/05/05 12:33:01;;;;;;;;;;;;;;;19.52;47.37;101203.31;104257;1288;61580;-81